createdAt,value
2018-08-06T00:01:18.763Z,25.28
2018-08-06T00:03:50.558Z,25.33
2018-08-06T00:06:21.769Z,25.26
2018-08-06T00:08:52.248Z,25.18
2018-08-06T00:11:25.275Z,24.96
2018-08-06T00:13:58.173Z,24.97
2018-08-06T00:16:28.764Z,25.07
2018-08-06T00:18:59.319Z,24.98
2018-08-06T00:21:31.603Z,25.03
2018-08-06T00:24:03.101Z,25.04
2018-08-06T00:26:34.264Z,24.83
2018-08-06T00:29:07.831Z,23.96
2018-08-06T00:31:41.405Z,24.75
2018-08-06T00:34:12.320Z,24.77
2018-08-06T00:36:42.659Z,24.63
2018-08-06T00:39:13.650Z,24.58
2018-08-06T00:41:44.683Z,24.51
2018-08-06T00:44:15.532Z,24.41
2018-08-06T00:46:46.123Z,24.47
2018-08-06T00:49:17.229Z,24.39
2018-08-06T00:51:48.161Z,24.39
2018-08-06T00:54:20.059Z,24.33
2018-08-06T00:56:50.427Z,24.40
2018-08-06T00:59:21.558Z,24.37
2018-08-06T01:01:52.931Z,24.43
2018-08-06T01:04:23.925Z,24.38
2018-08-06T01:06:55.325Z,24.34
2018-08-06T01:09:25.921Z,24.43
2018-08-06T01:11:56.163Z,24.38
2018-08-06T01:14:26.990Z,24.41
2018-08-06T01:16:58.559Z,24.41
2018-08-06T01:19:29.984Z,24.51
2018-08-06T01:22:01.531Z,24.60
2018-08-06T01:24:32.306Z,24.48
2018-08-06T01:27:03.672Z,24.35
2018-08-06T01:29:35.860Z,24.30
2018-08-06T01:32:07.195Z,24.28
2018-08-06T01:34:37.930Z,24.08
2018-08-06T01:37:08.236Z,24.07
2018-08-06T01:39:39.056Z,24.14
2018-08-06T01:42:09.999Z,24.10
2018-08-06T01:44:40.850Z,24.12
2018-08-06T01:47:12.304Z,24.02
2018-08-06T01:49:43.638Z,23.96
2018-08-06T01:52:14.254Z,23.98
2018-08-06T01:54:45.056Z,23.93
2018-08-06T01:57:15.787Z,23.86
2018-08-06T01:59:48.887Z,23.91
2018-08-06T02:02:20.209Z,23.93
2018-08-06T02:04:51.431Z,23.96
2018-08-06T02:07:21.810Z,23.90
2018-08-06T02:09:52.036Z,23.89
2018-08-06T02:12:22.206Z,23.86
2018-08-06T02:14:53.344Z,23.88
2018-08-06T02:17:24.372Z,23.96
2018-08-06T02:19:55.796Z,23.88
2018-08-06T02:22:26.196Z,23.88
2018-08-06T02:24:56.440Z,23.81
2018-08-06T02:27:26.681Z,23.79
2018-08-06T02:29:57.345Z,23.66
2018-08-06T02:32:29.970Z,23.61
2018-08-06T02:35:00.423Z,23.59
2018-08-06T02:37:31.744Z,23.46
2018-08-06T02:40:04.179Z,23.24
2018-08-06T02:42:35.112Z,23.18
2018-08-06T02:45:08.146Z,23.15
2018-08-06T02:47:38.875Z,23.02
2018-08-06T02:50:10.360Z,23.08
2018-08-06T02:52:41.720Z,22.63
2018-08-06T02:55:14.341Z,22.97
2018-08-06T02:57:44.468Z,23.00
2018-08-06T03:00:17.977Z,22.99
2018-08-06T03:02:48.684Z,22.88
2018-08-06T03:05:19.926Z,22.81
2018-08-06T03:07:50.696Z,22.80
2018-08-06T03:10:21.091Z,22.90
2018-08-06T03:12:51.982Z,22.90
2018-08-06T03:15:22.325Z,22.88
2018-08-06T03:17:52.457Z,22.71
2018-08-06T03:20:22.860Z,22.55
2018-08-06T03:22:52.994Z,22.49
2018-08-06T03:25:23.784Z,22.36
2018-08-06T03:27:54.200Z,22.26
2018-08-06T03:30:25.949Z,22.27
2018-08-06T03:32:56.169Z,22.26
2018-08-06T03:35:26.687Z,22.27
2018-08-06T03:37:57.352Z,22.28
2018-08-06T03:40:28.041Z,22.33
2018-08-06T03:42:58.729Z,22.28
2018-08-06T03:45:30.233Z,22.31
2018-08-06T03:48:00.367Z,22.46
2018-08-06T03:50:30.885Z,22.37
2018-08-06T03:53:01.417Z,22.28
2018-08-06T03:55:31.823Z,22.30
2018-08-06T03:58:02.610Z,22.32
2018-08-06T04:00:33.040Z,22.32
2018-08-06T04:03:04.106Z,22.29
2018-08-06T04:05:34.680Z,22.24
2018-08-06T04:08:05.059Z,22.23
2018-08-06T04:10:35.309Z,22.28
2018-08-06T04:13:05.521Z,22.27
2018-08-06T04:15:35.808Z,22.29
2018-08-06T04:18:06.429Z,21.93
2018-08-06T04:20:47.893Z,21.66
2018-08-06T04:23:18.184Z,21.67
2018-08-06T04:25:48.601Z,21.62
2018-08-06T04:28:20.204Z,21.64
2018-08-06T04:30:50.994Z,21.78
2018-08-06T04:33:21.081Z,21.90
2018-08-06T04:35:51.846Z,21.99
2018-08-06T04:38:33.145Z,22.06
2018-08-06T04:41:03.923Z,22.10
2018-08-06T04:43:33.997Z,22.09
2018-08-06T04:46:04.840Z,22.11
2018-08-06T04:48:35.384Z,22.11
2018-08-06T04:51:07.543Z,22.24
2018-08-06T04:53:39.093Z,22.31
2018-08-06T04:56:09.409Z,22.35
2018-08-06T04:58:42.667Z,22.59
2018-08-06T05:01:17.456Z,22.76
2018-08-06T05:03:55.604Z,22.98
2018-08-06T05:06:26.265Z,23.21
2018-08-06T05:08:56.472Z,23.21
2018-08-06T05:11:27.138Z,23.23
2018-08-06T05:13:59.529Z,23.19
2018-08-06T05:16:32.316Z,22.98
2018-08-06T05:19:02.419Z,23.48
2018-08-06T05:21:32.858Z,23.55
2018-08-06T05:24:03.997Z,23.98
2018-08-06T05:26:35.093Z,24.24
2018-08-06T05:29:05.556Z,24.57
2018-08-06T05:31:36.012Z,24.92
2018-08-06T05:34:07.349Z,25.25
2018-08-06T05:36:38.004Z,25.24
2018-08-06T05:39:09.451Z,25.51
2018-08-06T05:41:39.692Z,25.64
2018-08-06T05:44:11.394Z,25.99
2018-08-06T05:46:42.263Z,26.35
2018-08-06T05:49:12.397Z,26.55
2018-08-06T05:51:45.030Z,26.66
2018-08-06T05:54:16.057Z,26.83
2018-08-06T05:56:58.278Z,26.83
2018-08-06T05:59:28.347Z,26.89
2018-08-06T06:01:59.806Z,27.04
2018-08-06T06:04:31.377Z,26.93
2018-08-06T06:07:02.638Z,26.97
2018-08-06T06:09:33.285Z,27.06
2018-08-06T06:12:03.884Z,26.96
2018-08-06T06:14:35.275Z,27.14
2018-08-06T06:17:08.219Z,27.40
2018-08-06T06:19:44.106Z,27.74
2018-08-06T06:22:15.173Z,28.04
2018-08-06T06:24:49.466Z,28.08
2018-08-06T06:27:29.872Z,28.36
2018-08-06T06:30:00.351Z,28.03
2018-08-06T06:32:33.578Z,28.20
2018-08-06T06:35:05.630Z,28.72
2018-08-06T06:37:36.624Z,29.60
2018-08-06T06:40:18.072Z,30.01
2018-08-06T06:42:49.072Z,29.88
2018-08-06T06:45:20.371Z,30.00
2018-08-06T06:47:51.244Z,30.02
2018-08-06T06:50:21.753Z,29.95
2018-08-06T06:55:43.635Z,30.41
2018-08-06T06:58:16.223Z,30.58
2018-08-06T07:00:51.638Z,31.03
2018-08-06T07:03:22.865Z,30.95
2018-08-06T07:05:53.789Z,31.31
2018-08-06T07:08:26.345Z,31.46
2018-08-06T07:10:57.585Z,31.62
2018-08-06T07:13:28.804Z,31.09
2018-08-06T07:16:05.414Z,30.52
2018-08-06T07:18:37.504Z,31.42
2018-08-06T07:21:09.822Z,31.51
2018-08-06T07:23:44.512Z,31.31
2018-08-06T07:26:15.644Z,31.40
2018-08-06T07:28:46.487Z,31.35
2018-08-06T07:31:18.661Z,31.40
2018-08-06T07:33:51.908Z,30.95
2018-08-06T07:36:23.005Z,30.23
2018-08-06T07:38:53.448Z,30.62
2018-08-06T07:41:25.781Z,31.06
2018-08-06T07:43:57.140Z,31.69
2018-08-06T07:46:34.779Z,31.06
2018-08-06T07:49:09.430Z,32.10
2018-08-06T07:51:41.159Z,32.11
2018-08-06T07:54:12.187Z,32.16
2018-08-06T07:56:45.992Z,32.24
2018-08-06T07:59:18.402Z,32.52
2018-08-06T08:01:51.954Z,32.86
2018-08-06T08:04:34.759Z,32.46
2018-08-06T08:07:05.942Z,31.96
2018-08-06T08:09:37.865Z,32.72
2018-08-06T08:12:08.763Z,33.39
2018-08-06T08:14:38.998Z,33.13
2018-08-06T08:17:10.352Z,33.16
2018-08-06T08:19:42.075Z,33.61
2018-08-06T08:22:12.443Z,33.79
2018-08-06T08:24:44.177Z,33.86
2018-08-06T08:27:16.759Z,33.61
2018-08-06T08:29:48.313Z,33.66
2018-08-06T08:32:20.746Z,33.33
2018-08-06T08:34:52.378Z,32.88
2018-08-06T08:37:24.417Z,33.05
2018-08-06T08:39:56.883Z,32.97
2018-08-06T08:42:39.280Z,33.71
2018-08-06T08:45:15.530Z,34.08
2018-08-06T08:47:47.388Z,34.66
2018-08-06T08:50:19.720Z,34.91
2018-08-06T08:52:55.653Z,34.69
2018-08-06T08:55:27.158Z,34.14
2018-08-06T08:58:00.014Z,34.34
2018-08-06T09:00:46.277Z,34.71
2018-08-06T09:03:19.718Z,34.91
2018-08-06T09:05:51.981Z,33.26
2018-08-06T09:08:22.420Z,33.25
2018-08-06T09:10:53.557Z,33.67
2018-08-06T09:13:25.183Z,34.91
2018-08-06T09:15:58.076Z,35.80
2018-08-06T09:18:30.173Z,36.21
2018-08-06T09:21:00.449Z,35.34
2018-08-06T09:23:32.467Z,35.87
2018-08-06T09:26:04.663Z,35.78
2018-08-06T09:28:36.845Z,35.83
2018-08-06T09:31:08.218Z,36.30
2018-08-06T09:33:39.501Z,35.99
2018-08-06T09:36:09.916Z,34.58
2018-08-06T09:38:46.209Z,34.89
2018-08-06T09:41:17.426Z,35.46
2018-08-06T09:43:50.903Z,34.96
2018-08-06T09:46:24.505Z,33.97
2018-08-06T09:48:56.792Z,34.26
2018-08-06T09:51:29.386Z,35.31
2018-08-06T09:54:04.857Z,35.12
2018-08-06T09:56:35.314Z,35.05
2018-08-06T09:59:10.264Z,34.94
2018-08-06T10:01:46.465Z,35.98
2018-08-06T10:04:18.584Z,36.11
2018-08-06T10:06:54.728Z,36.07
2018-08-06T10:09:31.349Z,35.75
2018-08-06T10:12:08.184Z,35.25
2018-08-06T10:14:42.257Z,35.13
2018-08-06T10:17:14.378Z,35.97
2018-08-06T10:19:45.640Z,36.07
2018-08-06T10:22:19.212Z,36.90
2018-08-06T10:24:52.185Z,37.26
2018-08-06T10:27:26.092Z,36.42
2018-08-06T10:29:56.525Z,36.79
2018-08-06T10:32:28.939Z,37.11
2018-08-06T10:35:06.991Z,36.86
2018-08-06T10:37:52.755Z,37.58
2018-08-06T10:40:26.656Z,38.04
2018-08-06T10:42:58.440Z,37.31
2018-08-06T10:45:31.116Z,37.31
2018-08-06T10:48:03.594Z,37.41
2018-08-06T10:50:38.187Z,37.58
2018-08-06T10:53:09.594Z,38.28
2018-08-06T10:55:41.794Z,38.62
2018-08-06T10:58:14.773Z,38.34
2018-08-06T11:00:45.464Z,37.37
2018-08-06T11:03:16.486Z,38.10
2018-08-06T11:05:48.769Z,38.22
2018-08-06T11:08:22.584Z,38.82
2018-08-06T11:10:58.803Z,38.96
2018-08-06T11:13:32.839Z,39.59
2018-08-06T11:16:11.546Z,40.01
2018-08-06T11:18:44.130Z,40.23
2018-08-06T11:21:16.711Z,40.24
2018-08-06T11:23:48.936Z,40.05
2018-08-06T11:26:23.269Z,40.31
2018-08-06T11:28:56.648Z,41.01
2018-08-06T11:31:35.206Z,41.69
2018-08-06T11:34:08.614Z,41.77
2018-08-06T11:36:40.512Z,40.05
2018-08-06T11:39:13.208Z,39.77
2018-08-06T11:41:46.468Z,40.18
2018-08-06T11:44:19.283Z,40.01
2018-08-06T11:46:50.489Z,40.65
2018-08-06T11:49:21.471Z,41.16
2018-08-06T11:51:52.320Z,40.69
2018-08-06T11:54:24.677Z,39.88
2018-08-06T11:56:55.066Z,40.45
2018-08-06T11:59:33.313Z,40.95
2018-08-06T12:02:22.753Z,40.38
2018-08-06T12:04:57.014Z,40.41
2018-08-06T12:07:30.010Z,40.88
2018-08-06T12:10:11.425Z,41.39
2018-08-06T12:12:45.030Z,41.97
2018-08-06T12:15:20.455Z,42.58
2018-08-06T12:17:56.902Z,42.11
2018-08-06T12:20:29.061Z,42.30
2018-08-06T12:23:02.310Z,42.48
2018-08-06T12:25:34.114Z,41.90
2018-08-06T12:28:08.543Z,42.39
2018-08-06T12:30:40.661Z,41.96
2018-08-06T12:33:12.432Z,42.34
2018-08-06T12:35:49.358Z,42.26
2018-08-06T12:38:38.620Z,42.39
2018-08-06T12:41:33.169Z,42.61
2018-08-06T12:44:13.277Z,42.73
2018-08-06T12:46:46.246Z,42.59
2018-08-06T12:49:20.791Z,42.38
2018-08-06T12:51:58.599Z,41.35
2018-08-06T12:54:32.311Z,41.60
2018-08-06T12:57:04.015Z,41.12
2018-08-06T12:59:35.477Z,41.09
2018-08-06T13:02:06.086Z,40.50
2018-08-06T13:04:38.367Z,41.48
2018-08-06T13:07:09.643Z,41.80
2018-08-06T13:09:42.648Z,41.77
2018-08-06T13:12:19.693Z,41.65
2018-08-06T13:14:50.883Z,41.63
2018-08-06T13:17:31.962Z,42.32
2018-08-06T13:20:03.375Z,42.27
2018-08-06T13:22:42.609Z,42.15
2018-08-06T13:25:27.743Z,42.76
2018-08-06T13:27:59.966Z,42.90
2018-08-06T13:30:35.040Z,43.30
2018-08-06T13:33:08.714Z,43.42
2018-08-06T13:35:43.349Z,43.66
2018-08-06T13:38:15.044Z,43.07
2018-08-06T13:40:52.002Z,42.51
2018-08-06T13:43:28.738Z,42.62
2018-08-06T13:46:05.879Z,42.72
2018-08-06T13:48:46.326Z,42.95
2018-08-06T13:51:24.796Z,40.93
2018-08-06T13:54:01.958Z,38.91
2018-08-06T13:56:33.160Z,39.96
2018-08-06T13:59:06.146Z,40.50
2018-08-06T14:01:40.406Z,41.16
2018-08-06T14:04:14.738Z,40.12
2018-08-06T14:06:45.308Z,40.66
2018-08-06T14:09:18.837Z,40.77
2018-08-06T14:14:25.764Z,41.23
2018-08-06T14:16:59.432Z,40.61
2018-08-06T14:19:44.493Z,40.60
2018-08-06T14:24:57.954Z,39.72
2018-08-06T14:27:32.392Z,39.88
2018-08-06T14:30:06.815Z,39.98
2018-08-06T14:32:41.680Z,38.97
2018-08-06T14:35:15.426Z,39.53
2018-08-06T14:37:51.483Z,40.16
2018-08-06T14:40:28.280Z,40.43
2018-08-06T14:43:02.754Z,40.94
2018-08-06T14:45:37.571Z,40.87
2018-08-06T14:48:07.941Z,40.44
2018-08-06T14:50:42.482Z,40.17
2018-08-06T14:53:12.736Z,40.38
2018-08-06T14:55:49.738Z,40.82
2018-08-06T14:58:22.306Z,41.09
2018-08-06T15:00:54.703Z,40.35
2018-08-06T15:03:32.765Z,40.70
2018-08-06T15:06:04.819Z,40.44
2018-08-06T15:08:37.266Z,39.97
2018-08-06T15:11:18.132Z,39.25
2018-08-06T15:13:52.193Z,39.70
2018-08-06T15:16:23.836Z,39.41
2018-08-06T15:18:58.105Z,39.39
2018-08-06T15:21:33.425Z,39.56
2018-08-06T15:24:07.697Z,39.46
2018-08-06T15:26:38.478Z,39.52
2018-08-06T15:29:13.169Z,39.61
2018-08-06T15:31:44.528Z,39.68
2018-08-06T15:34:16.033Z,39.15
2018-08-06T15:36:49.079Z,38.90
2018-08-06T15:41:57.047Z,38.99
2018-08-06T15:44:27.561Z,38.58
2018-08-06T15:47:02.161Z,38.18
2018-08-06T15:49:38.149Z,37.89
2018-08-06T15:52:14.070Z,37.83
2018-08-06T15:54:49.445Z,37.65
2018-08-06T15:57:22.886Z,37.60
2018-08-06T15:59:55.831Z,37.32
2018-08-06T16:02:29.152Z,37.25
2018-08-06T16:05:00.157Z,37.21
2018-08-06T16:07:30.628Z,37.08
2018-08-06T16:10:06.501Z,37.21
2018-08-06T16:12:37.283Z,37.14
2018-08-06T16:15:19.903Z,36.90
2018-08-06T16:17:59.642Z,36.70
2018-08-06T16:20:32.841Z,37.02
2018-08-06T16:23:03.881Z,37.08
2018-08-06T16:25:34.468Z,37.09
2018-08-06T16:28:06.693Z,36.96
2018-08-06T16:30:38.409Z,37.16
2018-08-06T16:33:09.600Z,37.25
2018-08-06T16:35:42.416Z,37.09
2018-08-06T16:38:16.408Z,37.02
2018-08-06T16:40:48.649Z,37.16
2018-08-06T16:43:20.574Z,37.08
2018-08-06T16:45:51.640Z,36.94
2018-08-06T16:48:26.637Z,36.92
2018-08-06T16:53:46.269Z,36.90
2018-08-06T16:56:18.948Z,36.81
2018-08-06T16:58:49.679Z,36.66
2018-08-06T17:01:21.806Z,36.68
2018-08-06T17:03:53.503Z,36.66
2018-08-06T17:06:26.403Z,36.47
2018-08-06T17:09:14.569Z,36.45
2018-08-06T17:12:03.494Z,36.58
2018-08-06T17:14:35.348Z,36.53
2018-08-06T17:17:09.898Z,36.48
2018-08-06T17:19:47.299Z,36.39
2018-08-06T17:22:27.611Z,36.34
2018-08-06T17:25:00.360Z,36.29
2018-08-06T17:32:59.731Z,36.17
2018-08-06T17:35:33.054Z,36.15
2018-08-06T17:38:05.999Z,36.22
2018-08-06T17:40:39.078Z,36.19
2018-08-06T17:43:11.268Z,36.27
2018-08-06T17:45:42.198Z,36.20
2018-08-06T17:48:16.736Z,36.06
2018-08-06T17:53:01.813Z,35.96
2018-08-06T17:55:34.199Z,35.71
2018-08-06T17:58:07.922Z,35.70
2018-08-06T18:00:41.778Z,35.61
2018-08-06T18:03:16.542Z,35.48
2018-08-06T18:05:51.288Z,35.49
2018-08-06T18:08:24.922Z,35.38
2018-08-06T18:10:56.646Z,35.34
2018-08-06T18:13:36.691Z,35.37
2018-08-06T18:18:49.664Z,35.36
2018-08-06T18:21:22.996Z,35.32
2018-08-06T18:23:55.310Z,35.23
2018-08-06T18:26:28.406Z,35.16
2018-08-06T18:29:10.498Z,35.12
2018-08-06T18:31:41.122Z,35.01
2018-08-06T18:34:11.807Z,35.05
2018-08-06T18:36:44.568Z,35.08
2018-08-06T18:39:14.755Z,35.12
2018-08-06T18:41:45.250Z,35.05
2018-08-06T18:44:15.480Z,35.03
2018-08-06T18:46:52.153Z,35.09
2018-08-06T18:49:31.944Z,35.09
2018-08-06T18:52:03.211Z,35.00
2018-08-06T18:54:36.014Z,34.95
2018-08-06T18:57:08.464Z,34.75
2018-08-06T18:59:49.867Z,34.63
2018-08-06T19:02:21.194Z,34.50
2018-08-06T19:04:52.734Z,34.45
2018-08-06T19:07:27.619Z,34.41
2018-08-06T19:09:59.424Z,34.38
2018-08-06T19:12:35.612Z,34.40
2018-08-06T19:15:10.223Z,34.25
2018-08-06T19:17:49.282Z,34.22
2018-08-06T19:20:23.435Z,34.26
2018-08-06T19:22:54.278Z,34.17
2018-08-06T19:25:30.244Z,33.98
2018-08-06T19:28:02.825Z,33.83
2018-08-06T19:30:38.296Z,33.77
2018-08-06T19:33:10.580Z,33.71
2018-08-06T19:35:41.958Z,33.61
2018-08-06T19:38:14.294Z,33.64
2018-08-06T19:40:44.982Z,33.73
2018-08-06T19:43:20.275Z,33.71
2018-08-06T19:45:54.003Z,33.68
2018-08-06T19:48:25.537Z,33.59
2018-08-06T19:51:01.414Z,33.51
2018-08-06T19:53:33.049Z,33.43
2018-08-06T19:56:09.189Z,33.37
2018-08-06T19:58:42.622Z,33.44
2018-08-06T20:01:15.732Z,33.44
2018-08-06T20:03:49.917Z,33.44
2018-08-06T20:06:20.910Z,33.33
2018-08-06T20:08:52.928Z,33.02
2018-08-06T20:11:25.712Z,32.92
2018-08-06T20:13:56.969Z,32.82
2018-08-06T20:16:28.644Z,32.82
2018-08-06T20:19:03.385Z,32.69
2018-08-06T20:21:40.485Z,32.63
2018-08-06T20:24:14.495Z,32.36
2018-08-06T20:26:45.924Z,32.36
2018-08-06T20:29:17.869Z,32.28
2018-08-06T20:31:48.266Z,32.22
2018-08-06T20:34:20.042Z,32.24
2018-08-06T20:36:52.608Z,32.26
2018-08-06T20:39:24.688Z,32.31
2018-08-06T20:41:55.280Z,32.30
2018-08-06T20:44:25.753Z,32.35
2018-08-06T20:46:57.458Z,32.36
2018-08-06T20:49:27.775Z,32.36
2018-08-06T20:52:00.386Z,32.30
2018-08-06T20:54:34.402Z,32.12
2018-08-06T20:57:05.419Z,32.06
2018-08-06T20:59:36.579Z,32.13
2018-08-06T21:02:08.717Z,32.12
2018-08-06T21:04:44.365Z,32.04
2018-08-06T21:07:15.064Z,31.95
2018-08-06T21:09:48.246Z,31.94
2018-08-06T21:12:19.578Z,31.89
2018-08-06T21:14:50.256Z,31.76
2018-08-06T21:17:22.732Z,31.66
2018-08-06T21:19:57.572Z,31.69
2018-08-06T21:22:30.615Z,31.66
2018-08-06T21:25:07.233Z,31.59
2018-08-06T21:27:41.557Z,31.56
2018-08-06T21:30:19.749Z,31.58
2018-08-06T21:32:54.219Z,31.53
2018-08-06T21:35:27.189Z,31.38
2018-08-06T21:38:01.829Z,31.34
2018-08-06T21:40:32.332Z,31.23
2018-08-06T21:43:02.487Z,31.20
2018-08-06T21:45:33.013Z,31.10
2018-08-06T21:48:03.821Z,31.03
2018-08-06T21:50:34.223Z,30.96
2018-08-06T21:53:04.456Z,31.06
2018-08-06T21:55:35.083Z,31.11
2018-08-06T21:58:05.819Z,31.02
2018-08-06T22:00:38.331Z,31.00
2018-08-06T22:03:19.889Z,30.96
2018-08-06T22:05:55.095Z,30.89
2018-08-06T22:08:26.331Z,30.80
2018-08-06T22:11:00.271Z,30.85
2018-08-06T22:13:31.216Z,30.87
2018-08-06T22:16:03.342Z,30.84
2018-08-06T22:18:34.025Z,30.78
2018-08-06T22:21:05.254Z,30.73
2018-08-06T22:29:39.662Z,30.66
2018-08-06T22:32:14.857Z,30.35
2018-08-06T22:34:46.679Z,30.08
2018-08-06T22:37:18.480Z,29.89
2018-08-06T22:39:50.120Z,29.92
2018-08-06T22:42:20.515Z,29.80
2018-08-06T22:44:51.432Z,29.75
2018-08-06T22:47:23.043Z,29.64
2018-08-06T22:49:55.656Z,29.63
2018-08-06T22:52:26.723Z,29.74
2018-08-06T22:54:58.261Z,29.78
2018-08-06T22:57:29.569Z,29.82
2018-08-06T23:00:00.929Z,29.87
2018-08-06T23:02:34.034Z,29.87
2018-08-06T23:05:05.831Z,29.91
2018-08-06T23:07:37.321Z,29.93
2018-08-06T23:10:11.254Z,29.93
2018-08-06T23:12:42.662Z,29.87
2018-08-06T23:15:16.918Z,29.88
2018-08-06T23:17:48.775Z,29.91
2018-08-06T23:20:19.016Z,29.94
2018-08-06T23:22:52.007Z,29.94
2018-08-06T23:25:27.456Z,29.94
2018-08-06T23:27:58.721Z,29.93
2018-08-06T23:30:29.601Z,29.96
2018-08-06T23:32:59.795Z,29.93
2018-08-06T23:35:29.964Z,29.93
2018-08-06T23:38:01.255Z,29.96
2018-08-06T23:40:31.511Z,29.88
2018-08-06T23:43:01.952Z,29.70
2018-08-06T23:45:32.426Z,29.59
2018-08-06T23:48:04.830Z,29.29
2018-08-06T23:50:35.201Z,28.96
2018-08-06T23:53:06.536Z,28.86
2018-08-06T23:55:36.675Z,28.83
2018-08-06T23:58:07.345Z,28.87
